createdAt,value
2019-03-03T00:00:22.122Z,99.90
2019-03-03T00:02:50.729Z,99.90
2019-03-03T00:05:19.315Z,99.90
2019-03-03T00:07:47.858Z,99.90
2019-03-03T00:10:16.442Z,99.90
2019-03-03T00:12:44.884Z,99.90
2019-03-03T00:15:14.066Z,99.90
2019-03-03T00:17:42.512Z,99.90
2019-03-03T00:20:15.455Z,99.90
2019-03-03T00:22:43.984Z,99.90
2019-03-03T00:25:14.152Z,99.90
2019-03-03T00:27:42.700Z,99.90
2019-03-03T00:30:15.562Z,99.90
2019-03-03T00:32:44.171Z,99.90
2019-03-03T00:35:12.686Z,99.90
2019-03-03T00:37:45.731Z,99.90
2019-03-03T00:40:21.971Z,99.90
2019-03-03T00:43:09.170Z,99.90
2019-03-03T00:45:51.605Z,99.90
2019-03-03T00:48:21.768Z,99.90
2019-03-03T00:50:51.881Z,99.90
2019-03-03T00:53:22.042Z,99.90
2019-03-03T00:55:52.159Z,99.90
2019-03-03T00:58:22.391Z,99.90
2019-03-03T01:00:55.769Z,99.90
2019-03-03T01:03:25.930Z,99.90
2019-03-03T01:06:02.130Z,99.90
2019-03-03T01:08:32.231Z,99.90
2019-03-03T01:11:05.327Z,99.90
2019-03-03T01:13:47.803Z,99.90
2019-03-03T01:16:34.163Z,99.90
2019-03-03T01:19:04.348Z,99.90
2019-03-03T01:21:40.272Z,99.90
2019-03-03T01:24:13.346Z,99.90
2019-03-03T01:26:41.942Z,99.90
2019-03-03T01:29:10.475Z,99.90
2019-03-03T01:31:39.014Z,99.90
2019-03-03T01:34:07.543Z,99.90
2019-03-03T01:36:36.149Z,99.90
2019-03-03T01:39:05.906Z,99.90
2019-03-03T01:41:34.446Z,99.90
2019-03-03T01:44:03.036Z,99.90
2019-03-03T01:46:31.578Z,99.90
2019-03-03T01:49:00.103Z,99.90
2019-03-03T01:51:28.642Z,99.90
2019-03-03T01:53:57.168Z,99.90
2019-03-03T01:56:28.414Z,99.90
2019-03-03T01:58:56.859Z,99.90
2019-03-03T02:01:25.610Z,99.90
2019-03-03T02:03:54.067Z,99.90
2019-03-03T02:06:22.650Z,99.90
2019-03-03T02:08:51.118Z,99.90
2019-03-03T02:11:19.818Z,99.90
2019-03-03T02:13:48.430Z,99.90
2019-03-03T02:16:17.119Z,99.90
2019-03-03T02:18:45.659Z,99.90
2019-03-03T02:21:14.184Z,99.90
2019-03-03T02:23:42.723Z,99.90
2019-03-03T02:26:11.251Z,99.90
2019-03-03T02:28:39.871Z,99.90
2019-03-03T02:31:08.536Z,99.90
2019-03-03T02:33:37.083Z,99.90
2019-03-03T02:36:05.747Z,99.90
2019-03-03T02:38:34.303Z,99.90
2019-03-03T02:41:02.828Z,99.90
2019-03-03T02:43:34.438Z,99.90
2019-03-03T02:46:02.888Z,99.90
2019-03-03T02:48:31.431Z,99.90
2019-03-03T02:50:59.973Z,99.90
2019-03-03T02:53:28.514Z,99.90
2019-03-03T02:55:57.040Z,99.90
2019-03-03T02:58:25.590Z,99.90
2019-03-03T03:00:55.766Z,99.90
2019-03-03T03:03:25.474Z,99.90
2019-03-03T03:06:11.875Z,99.90
2019-03-03T03:08:44.743Z,99.90
2019-03-03T03:11:15.070Z,99.90
2019-03-03T03:13:45.280Z,99.90
2019-03-03T03:16:18.310Z,99.90
2019-03-03T03:18:48.431Z,99.90
2019-03-03T03:21:24.517Z,99.90
2019-03-03T03:24:11.019Z,99.90
2019-03-03T03:26:44.032Z,99.90
2019-03-03T03:29:20.083Z,99.90
2019-03-03T03:31:50.331Z,99.90
2019-03-03T03:34:20.520Z,99.90
2019-03-03T03:37:05.824Z,99.90
2019-03-03T03:39:44.930Z,99.90
2019-03-03T03:42:18.003Z,99.90
2019-03-03T03:45:04.519Z,99.90
2019-03-03T03:47:53.156Z,99.90
2019-03-03T03:50:23.418Z,99.90
2019-03-03T03:53:02.790Z,99.90
2019-03-03T03:55:35.863Z,99.90
2019-03-03T03:58:06.486Z,99.90
2019-03-03T04:00:36.735Z,99.90
2019-03-03T04:03:22.372Z,99.90
2019-03-03T04:05:55.391Z,99.90
2019-03-03T04:08:25.699Z,99.90
2019-03-03T04:11:12.489Z,99.90
2019-03-03T04:13:59.111Z,99.90
2019-03-03T04:16:29.312Z,99.90
2019-03-03T04:19:05.664Z,99.90
2019-03-03T04:21:41.618Z,99.90
2019-03-03T04:24:27.087Z,99.90
2019-03-03T04:26:57.280Z,99.90
2019-03-03T04:29:30.561Z,99.90
2019-03-03T04:32:09.608Z,99.90
2019-03-03T04:34:49.098Z,99.90
2019-03-03T04:37:19.203Z,99.90
2019-03-03T04:40:04.708Z,99.90
2019-03-03T04:42:46.919Z,99.90
2019-03-03T04:45:17.006Z,99.90
2019-03-03T04:47:47.115Z,99.90
2019-03-03T04:50:17.283Z,99.90
2019-03-03T04:52:47.455Z,99.90
2019-03-03T04:55:29.494Z,99.90
2019-03-03T04:58:02.675Z,99.90
2019-03-03T05:00:38.886Z,99.90
2019-03-03T05:03:25.184Z,99.90
2019-03-03T05:05:58.247Z,99.90
2019-03-03T05:08:28.411Z,99.90
2019-03-03T05:11:07.504Z,99.90
2019-03-03T05:13:37.666Z,99.90
2019-03-03T05:16:23.771Z,99.90
2019-03-03T05:18:53.886Z,99.90
2019-03-03T05:21:22.343Z,99.90
2019-03-03T05:23:50.864Z,99.90
2019-03-03T05:26:19.406Z,99.90
2019-03-03T05:28:47.863Z,99.90
2019-03-03T05:31:16.397Z,99.90
2019-03-03T05:33:44.850Z,99.90
2019-03-03T05:36:13.323Z,99.90
2019-03-03T05:38:41.842Z,99.90
2019-03-03T05:41:10.387Z,99.90
2019-03-03T05:43:38.913Z,99.90
2019-03-03T05:46:07.455Z,99.90
2019-03-03T05:48:35.979Z,99.90
2019-03-03T05:51:04.446Z,99.90
2019-03-03T05:53:32.959Z,99.90
2019-03-03T05:56:01.503Z,99.90
2019-03-03T05:58:29.950Z,99.90
2019-03-03T06:00:58.492Z,99.90
2019-03-03T06:03:27.015Z,99.90
2019-03-03T06:05:55.550Z,99.90
2019-03-03T06:08:24.034Z,99.90
2019-03-03T06:10:52.622Z,99.90
2019-03-03T06:13:21.063Z,99.90
2019-03-03T06:15:49.514Z,99.90
2019-03-03T06:18:18.046Z,99.90
2019-03-03T06:20:46.493Z,99.90
2019-03-03T06:23:15.039Z,99.90
2019-03-03T06:25:43.557Z,99.90
2019-03-03T06:28:12.108Z,99.90
2019-03-03T06:30:40.690Z,99.90
2019-03-03T06:33:09.298Z,99.90
2019-03-03T06:35:37.752Z,99.90
2019-03-03T06:38:06.294Z,99.90
2019-03-03T06:40:34.811Z,99.90
2019-03-03T06:43:03.289Z,99.90
2019-03-03T06:45:31.802Z,99.90
2019-03-03T06:48:00.284Z,99.90
2019-03-03T06:50:28.801Z,99.90
2019-03-03T06:52:57.343Z,99.90
2019-03-03T06:55:25.802Z,99.90
2019-03-03T06:57:54.410Z,99.90
2019-03-03T07:00:23.630Z,99.90
2019-03-03T07:02:52.183Z,99.90
2019-03-03T07:05:20.847Z,99.90
2019-03-03T07:07:49.307Z,99.90
2019-03-03T07:10:17.846Z,99.90
2019-03-03T07:12:46.362Z,99.90
2019-03-03T07:15:16.647Z,99.90
2019-03-03T07:17:45.239Z,99.90
2019-03-03T07:20:14.050Z,99.90
2019-03-03T07:22:42.641Z,99.90
2019-03-03T07:25:12.918Z,99.90
2019-03-03T07:27:41.536Z,99.90
2019-03-03T07:30:12.447Z,99.90
2019-03-03T07:32:42.675Z,99.90
2019-03-03T07:35:11.138Z,99.90
2019-03-03T07:37:39.734Z,99.90
2019-03-03T07:40:08.717Z,99.90
2019-03-03T07:42:37.235Z,99.90
2019-03-03T07:45:11.622Z,99.90
2019-03-03T07:47:40.074Z,99.90
2019-03-03T07:50:08.915Z,99.90
2019-03-03T07:52:37.503Z,99.90
2019-03-03T07:55:08.729Z,99.90
2019-03-03T07:57:37.383Z,99.90
2019-03-03T08:00:16.107Z,99.90
2019-03-03T08:02:44.765Z,99.50
2019-03-03T08:05:13.565Z,98.30
2019-03-03T08:07:42.187Z,96.60
2019-03-03T08:10:12.450Z,96.10
2019-03-03T08:12:41.004Z,95.30
2019-03-03T08:15:12.343Z,94.60
2019-03-03T08:17:40.967Z,95.00
2019-03-03T08:20:11.331Z,93.80
2019-03-03T08:22:39.943Z,93.20
2019-03-03T08:25:13.179Z,93.40
2019-03-03T08:27:41.872Z,92.50
2019-03-03T08:30:14.979Z,91.70
2019-03-03T08:32:43.517Z,91.20
2019-03-03T08:35:22.921Z,90.70
2019-03-03T08:37:51.538Z,88.80
2019-03-03T08:40:20.136Z,88.50
2019-03-03T08:42:50.310Z,87.40
2019-03-03T08:45:26.468Z,90.00
2019-03-03T08:47:56.642Z,87.60
2019-03-03T08:50:29.495Z,84.80
2019-03-03T08:53:15.707Z,86.40
2019-03-03T08:55:51.850Z,87.10
2019-03-03T08:58:38.236Z,85.30
2019-03-03T09:01:08.418Z,85.40
2019-03-03T09:03:38.511Z,82.90
2019-03-03T09:06:08.775Z,80.60
2019-03-03T09:08:38.938Z,82.00
2019-03-03T09:11:09.055Z,81.60
2019-03-03T09:13:42.275Z,82.20
2019-03-03T09:16:12.467Z,80.90
2019-03-03T09:19:20.492Z,79.60
2019-03-03T09:21:56.916Z,78.80
2019-03-03T09:24:29.791Z,79.20
2019-03-03T09:27:02.459Z,77.70
2019-03-03T09:29:32.560Z,76.90
2019-03-03T09:32:19.048Z,76.60
2019-03-03T09:34:51.980Z,76.90
2019-03-03T09:37:22.147Z,77.30
2019-03-03T09:39:58.442Z,74.50
2019-03-03T09:42:40.494Z,73.00
2019-03-03T09:45:27.682Z,72.30
2019-03-03T09:47:57.855Z,73.00
2019-03-03T09:50:33.740Z,72.00
2019-03-03T09:53:12.732Z,72.20
2019-03-03T09:55:59.299Z,71.00
2019-03-03T09:58:38.487Z,71.90
2019-03-03T10:01:08.755Z,72.10
2019-03-03T10:03:42.190Z,69.80
2019-03-03T10:06:12.578Z,67.30
2019-03-03T10:09:00.879Z,67.40
2019-03-03T10:11:31.135Z,68.80
2019-03-03T10:14:04.316Z,67.40
2019-03-03T10:16:37.444Z,65.70
2019-03-03T10:19:10.066Z,64.20
2019-03-03T10:21:45.960Z,65.30
2019-03-03T10:24:25.397Z,63.00
2019-03-03T10:27:12.070Z,63.70
2019-03-03T10:29:45.216Z,64.50
2019-03-03T10:32:24.598Z,66.30
2019-03-03T10:34:57.448Z,66.10
2019-03-03T10:37:30.491Z,65.00
2019-03-03T10:40:03.198Z,64.00
2019-03-03T10:42:33.368Z,63.40
2019-03-03T10:45:06.610Z,61.40
2019-03-03T10:47:36.851Z,61.70
2019-03-03T10:50:27.910Z,61.60
2019-03-03T10:53:04.494Z,62.20
2019-03-03T10:55:43.520Z,62.60
2019-03-03T10:58:16.748Z,61.20
2019-03-03T11:01:05.375Z,59.90
2019-03-03T11:03:35.479Z,60.50
2019-03-03T11:06:22.015Z,60.60
2019-03-03T11:08:58.080Z,58.90
2019-03-03T11:11:28.335Z,59.90
2019-03-03T11:14:04.100Z,61.90
2019-03-03T11:16:37.271Z,59.90
2019-03-03T11:19:10.335Z,56.50
2019-03-03T11:21:46.735Z,57.10
2019-03-03T11:24:23.030Z,58.20
2019-03-03T11:26:53.156Z,58.30
2019-03-03T11:29:32.547Z,58.50
2019-03-03T11:32:05.555Z,57.00
2019-03-03T11:34:41.216Z,55.90
2019-03-03T11:37:23.466Z,56.50
2019-03-03T11:40:12.091Z,57.20
2019-03-03T11:42:42.280Z,56.70
2019-03-03T11:45:29.228Z,58.30
2019-03-03T11:48:08.054Z,57.30
2019-03-03T11:50:38.163Z,58.20
2019-03-03T11:53:08.347Z,59.00
2019-03-03T11:55:54.770Z,58.60
2019-03-03T11:58:41.587Z,58.50
2019-03-03T12:01:11.890Z,58.60
2019-03-03T12:04:00.312Z,59.20
2019-03-03T12:06:33.024Z,59.10
2019-03-03T12:09:19.625Z,58.10
2019-03-03T12:11:49.798Z,59.20
2019-03-03T12:14:29.066Z,57.90
2019-03-03T12:17:07.966Z,57.50
2019-03-03T12:19:54.445Z,57.50
2019-03-03T12:22:42.915Z,55.80
2019-03-03T12:25:21.689Z,53.80
2019-03-03T12:28:07.039Z,53.80
2019-03-03T12:30:37.300Z,50.20
2019-03-03T12:33:10.516Z,49.90
2019-03-03T12:35:43.447Z,49.50
2019-03-03T12:38:30.234Z,49.90
2019-03-03T12:41:16.698Z,49.90
2019-03-03T12:43:55.738Z,49.30
2019-03-03T12:46:28.971Z,48.40
2019-03-03T12:48:59.134Z,49.90
2019-03-03T12:51:47.851Z,49.60
2019-03-03T12:54:26.925Z,48.60
2019-03-03T12:57:03.159Z,50.50
2019-03-03T12:59:33.334Z,48.50
2019-03-03T13:02:20.067Z,48.70
2019-03-03T13:04:59.206Z,47.60
2019-03-03T13:07:29.477Z,47.70
2019-03-03T13:10:02.593Z,48.00
2019-03-03T13:12:32.786Z,46.90
2019-03-03T13:15:02.979Z,46.10
2019-03-03T13:17:36.318Z,45.10
2019-03-03T13:20:15.015Z,44.40
2019-03-03T13:23:00.278Z,46.20
2019-03-03T13:25:30.535Z,44.30
2019-03-03T13:28:06.224Z,44.70
2019-03-03T13:30:36.414Z,43.90
2019-03-03T13:33:09.627Z,43.00
2019-03-03T13:35:39.799Z,43.10
2019-03-03T13:38:09.993Z,43.40
2019-03-03T13:40:42.927Z,43.40
2019-03-03T13:43:11.535Z,43.90
2019-03-03T13:45:40.198Z,42.20
2019-03-03T13:48:08.835Z,44.50
2019-03-03T13:50:37.486Z,44.20
2019-03-03T13:53:06.254Z,43.20
2019-03-03T13:55:34.813Z,44.70
2019-03-03T13:58:03.398Z,45.90
2019-03-03T14:00:32.226Z,44.20
2019-03-03T14:03:00.817Z,43.50
2019-03-03T14:05:29.687Z,43.70
2019-03-03T14:07:58.380Z,43.90
2019-03-03T14:10:26.900Z,43.30
2019-03-03T14:12:55.525Z,43.40
2019-03-03T14:15:24.120Z,43.30
2019-03-03T14:17:52.714Z,45.20
2019-03-03T14:20:23.111Z,44.40
2019-03-03T14:22:52.667Z,44.50
2019-03-03T14:25:21.453Z,46.10
2019-03-03T14:27:50.117Z,44.40
2019-03-03T14:30:26.688Z,44.80
2019-03-03T14:32:55.421Z,45.40
2019-03-03T14:35:23.947Z,45.20
2019-03-03T14:37:52.632Z,45.40
2019-03-03T14:40:22.421Z,46.10
2019-03-03T14:42:51.139Z,45.70
2019-03-03T14:45:20.113Z,47.60
2019-03-03T14:47:48.907Z,46.80
2019-03-03T14:50:22.195Z,47.80
2019-03-03T14:52:52.889Z,46.50
2019-03-03T14:55:21.570Z,46.00
2019-03-03T14:57:50.091Z,47.30
2019-03-03T15:00:25.444Z,46.00
2019-03-03T15:02:54.409Z,45.90
2019-03-03T15:05:24.079Z,47.00
2019-03-03T15:07:52.706Z,47.00
2019-03-03T15:10:21.366Z,48.50
2019-03-03T15:12:49.936Z,47.70
2019-03-03T15:15:26.011Z,47.20
2019-03-03T15:17:54.631Z,48.00
2019-03-03T15:20:23.491Z,49.70
2019-03-03T15:22:52.159Z,48.30
2019-03-03T15:25:20.780Z,47.80
2019-03-03T15:27:49.547Z,47.90
2019-03-03T15:30:23.114Z,48.40
2019-03-03T15:32:51.737Z,48.80
2019-03-03T15:35:20.393Z,48.90
2019-03-03T15:37:49.051Z,48.80
2019-03-03T15:40:23.646Z,49.50
2019-03-03T15:42:52.512Z,49.20
2019-03-03T15:45:23.412Z,49.20
2019-03-03T15:47:52.105Z,49.50
2019-03-03T15:50:21.673Z,49.60
2019-03-03T15:52:50.458Z,49.30
2019-03-03T15:55:24.277Z,49.40
2019-03-03T15:57:52.876Z,49.20
2019-03-03T16:00:27.189Z,49.40
2019-03-03T16:02:55.779Z,48.50
2019-03-03T16:05:24.331Z,49.90
2019-03-03T16:07:52.919Z,49.90
2019-03-03T16:10:26.529Z,50.30
2019-03-03T16:12:55.212Z,50.40
2019-03-03T16:15:23.813Z,50.20
2019-03-03T16:17:52.417Z,51.10
2019-03-03T16:20:24.984Z,52.20
2019-03-03T16:22:53.576Z,51.20
2019-03-03T16:25:23.387Z,51.30
2019-03-03T16:27:52.054Z,51.40
2019-03-03T16:30:24.341Z,52.30
2019-03-03T16:32:52.947Z,51.80
2019-03-03T16:35:21.544Z,51.90
2019-03-03T16:37:50.090Z,53.50
2019-03-03T16:40:23.946Z,53.00
2019-03-03T16:42:52.836Z,53.90
2019-03-03T16:45:21.810Z,54.20
2019-03-03T16:47:50.676Z,53.70
2019-03-03T16:50:20.460Z,57.60
2019-03-03T16:52:49.124Z,58.60
2019-03-03T16:55:19.172Z,60.50
2019-03-03T16:57:47.773Z,58.00
2019-03-03T17:00:26.158Z,55.80
2019-03-03T17:02:54.751Z,54.60
2019-03-03T17:05:27.742Z,54.40
2019-03-03T17:07:56.209Z,54.50
2019-03-03T17:10:25.697Z,55.20
2019-03-03T17:12:54.248Z,55.10
2019-03-03T17:15:25.286Z,61.00
2019-03-03T17:17:53.980Z,59.60
2019-03-03T17:20:22.451Z,59.80
2019-03-03T17:22:51.047Z,58.50
2019-03-03T17:25:27.759Z,57.10
2019-03-03T17:27:56.419Z,56.50
2019-03-03T17:30:27.048Z,57.10
2019-03-03T17:32:55.944Z,57.30
2019-03-03T17:35:24.531Z,56.80
2019-03-03T17:37:53.216Z,57.30
2019-03-03T17:40:23.288Z,60.10
2019-03-03T17:42:52.098Z,60.50
2019-03-03T17:45:21.791Z,60.40
2019-03-03T17:47:50.784Z,62.20
2019-03-03T17:50:21.351Z,63.80
2019-03-03T17:52:49.835Z,62.30
2019-03-03T17:55:18.494Z,60.60
2019-03-03T17:57:47.116Z,61.50
2019-03-03T18:00:30.031Z,60.90
2019-03-03T18:02:58.508Z,61.20
2019-03-03T18:05:27.037Z,61.30
2019-03-03T18:07:55.603Z,61.40
2019-03-03T18:10:24.218Z,61.50
2019-03-03T18:12:52.821Z,62.00
2019-03-03T18:15:22.003Z,62.50
2019-03-03T18:17:50.768Z,62.70
2019-03-03T18:20:21.318Z,63.30
2019-03-03T18:22:50.085Z,63.30
2019-03-03T18:25:19.983Z,63.50
2019-03-03T18:27:48.502Z,63.40
2019-03-03T18:30:28.020Z,63.70
2019-03-03T18:32:56.543Z,63.70
2019-03-03T18:35:25.432Z,64.10
2019-03-03T18:37:54.102Z,64.10
2019-03-03T18:40:24.259Z,64.20
2019-03-03T18:42:52.926Z,65.80
2019-03-03T18:45:22.723Z,65.30
2019-03-03T18:47:51.491Z,64.90
2019-03-03T18:50:24.507Z,66.70
2019-03-03T18:52:53.038Z,67.40
2019-03-03T18:55:21.647Z,73.40
2019-03-03T18:57:50.239Z,72.40
2019-03-03T19:00:26.398Z,72.20
2019-03-03T19:02:55.064Z,73.80
2019-03-03T19:05:23.702Z,73.70
2019-03-03T19:07:52.359Z,74.50
2019-03-03T19:10:28.916Z,74.80
2019-03-03T19:12:57.498Z,75.40
2019-03-03T19:15:26.173Z,77.80
2019-03-03T19:17:54.768Z,78.60
2019-03-03T19:20:23.376Z,78.80
2019-03-03T19:22:52.043Z,79.50
2019-03-03T19:25:21.034Z,79.80
2019-03-03T19:27:49.626Z,80.00
2019-03-03T19:30:23.170Z,80.40
2019-03-03T19:32:57.710Z,81.20
2019-03-03T19:35:26.327Z,81.60
2019-03-03T19:37:54.933Z,81.40
2019-03-03T19:40:24.410Z,81.10
2019-03-03T19:42:53.913Z,82.60
2019-03-03T19:45:37.179Z,83.60
2019-03-03T19:48:07.097Z,83.00
2019-03-03T19:50:35.847Z,83.60
2019-03-03T19:53:05.146Z,85.40
2019-03-03T19:55:33.758Z,87.50
2019-03-03T19:58:02.651Z,87.90
2019-03-03T20:00:39.731Z,89.30
2019-03-03T20:03:08.483Z,91.30
2019-03-03T20:05:37.023Z,92.10
2019-03-03T20:08:06.310Z,92.50
2019-03-03T20:10:35.487Z,92.30
2019-03-03T20:13:04.374Z,93.80
2019-03-03T20:15:33.223Z,94.10
2019-03-03T20:18:02.826Z,94.00
2019-03-03T20:20:31.427Z,94.90
2019-03-03T20:23:00.125Z,95.60
2019-03-03T20:25:28.715Z,96.20
2019-03-03T20:27:57.234Z,96.60
2019-03-03T20:30:26.262Z,97.30
2019-03-03T20:32:54.839Z,97.40
2019-03-03T20:35:23.487Z,98.00
2019-03-03T20:37:52.047Z,98.50
2019-03-03T20:40:22.159Z,98.90
2019-03-03T20:42:51.423Z,98.80
2019-03-03T20:45:25.047Z,98.30
2019-03-03T20:47:53.743Z,98.30
2019-03-03T20:50:22.526Z,98.00
2019-03-03T20:52:51.523Z,98.60
2019-03-03T20:55:24.722Z,99.40
2019-03-03T20:57:53.391Z,99.00
2019-03-03T21:00:25.405Z,99.90
2019-03-03T21:02:54.051Z,99.90
2019-03-03T21:05:22.768Z,99.90
2019-03-03T21:07:52.191Z,99.90
2019-03-03T21:10:26.566Z,99.90
2019-03-03T21:12:55.119Z,99.90
2019-03-03T21:15:23.947Z,99.90
2019-03-03T21:17:52.571Z,99.90
2019-03-03T21:20:24.486Z,99.90
2019-03-03T21:22:53.106Z,99.90
2019-03-03T21:25:21.910Z,99.90
2019-03-03T21:27:50.572Z,99.90
2019-03-03T21:30:27.323Z,99.90
2019-03-03T21:32:55.946Z,99.90
2019-03-03T21:35:24.702Z,99.90
2019-03-03T21:37:53.297Z,99.90
2019-03-03T21:40:28.895Z,99.90
2019-03-03T21:42:57.419Z,99.90
2019-03-03T21:45:30.201Z,99.90
2019-03-03T21:47:58.874Z,99.90
2019-03-03T21:50:31.590Z,99.90
2019-03-03T21:53:00.123Z,99.70
2019-03-03T21:55:28.807Z,99.60
2019-03-03T21:57:57.334Z,99.60
2019-03-03T22:00:37.773Z,99.40
2019-03-03T22:03:06.661Z,99.40
2019-03-03T22:05:35.308Z,99.30
2019-03-03T22:08:04.296Z,99.40
2019-03-03T22:10:33.471Z,99.40
2019-03-03T22:13:09.757Z,99.30
2019-03-03T22:15:38.373Z,99.10
2019-03-03T22:18:07.067Z,98.80
2019-03-03T22:20:35.646Z,98.90
2019-03-03T22:23:04.201Z,98.70
2019-03-03T22:25:32.792Z,99.20
2019-03-03T22:28:01.400Z,99.90
2019-03-03T22:30:30.010Z,99.90
2019-03-03T22:32:58.627Z,99.90
2019-03-03T22:35:27.243Z,99.90
2019-03-03T22:37:55.754Z,99.90
2019-03-03T22:40:25.142Z,99.90
2019-03-03T22:42:53.659Z,99.90
2019-03-03T22:45:22.975Z,99.90
2019-03-03T22:47:51.631Z,99.90
2019-03-03T22:50:22.914Z,99.90
2019-03-03T22:52:51.515Z,99.90
2019-03-03T22:55:20.975Z,99.90
2019-03-03T22:57:49.756Z,99.90
2019-03-03T23:00:44.329Z,99.90
2019-03-03T23:03:15.807Z,99.90
2019-03-03T23:06:02.720Z,99.90
2019-03-03T23:08:45.563Z,99.90
2019-03-03T23:11:20.285Z,99.90
2019-03-03T23:13:54.623Z,99.90
2019-03-03T23:16:45.895Z,99.90
2019-03-03T23:19:47.970Z,99.90
2019-03-03T23:22:34.419Z,99.90
2019-03-03T23:25:08.583Z,99.90
2019-03-03T23:27:37.123Z,99.90
2019-03-03T23:30:08.192Z,99.90
2019-03-03T23:32:36.734Z,99.90
2019-03-03T23:35:06.147Z,99.90
2019-03-03T23:37:34.673Z,99.90
2019-03-03T23:40:03.210Z,99.90
2019-03-03T23:42:31.807Z,99.90
2019-03-03T23:45:00.323Z,99.90
2019-03-03T23:47:28.790Z,99.90
2019-03-03T23:49:57.315Z,99.90
2019-03-03T23:52:25.783Z,99.90
2019-03-03T23:54:54.311Z,99.90
2019-03-03T23:57:23.534Z,99.90
2019-03-03T23:59:52.178Z,99.90
